AUA5PC EPWA-LOWW
Flight info
| Callsign | AUA5PC |
|---|---|
| Flight time | 1h 10m |
| Altitude | 34000 |
| Route | EVINA N744 TUSIN DCT MIKOV MIKOV8W |
| Aircraft | A320/M-SDE3FGHIRWY/LB1 |
Departure
| Time | 2026-05-06 18:06 |
|---|---|
| Airport | Warsaw Chopin Airport (EPWA) |
Arrival
| Time | 2026-05-06 19:16 |
|---|---|
| Airport | Vienna International Airport (LOWW) |
| Time | Latitude | Longitude | Altitude | Speed | Heading |
|---|---|---|---|---|---|
| 2026-05-06 17:46 | 52.16915 | 20.97231 | 336 ft | 0 kts | 76° |
| 2026-05-06 17:49 | 52.16915 | 20.97230 | 336 ft | 0 kts | 76° |
| 2026-05-06 17:58 | 52.16914 | 20.97228 | 339 ft | 1 kts | 76° |
| 2026-05-06 17:58 | 52.16911 | 20.97203 | 335 ft | 3 kts | 76° |
| 2026-05-06 17:58 | 52.16906 | 20.97171 | 335 ft | 3 kts | 76° |
| 2026-05-06 17:58 | 52.16901 | 20.97139 | 334 ft | 3 kts | 76° |
| 2026-05-06 17:59 | 52.16897 | 20.97110 | 335 ft | 3 kts | 86° |
| 2026-05-06 17:59 | 52.16899 | 20.97080 | 334 ft | 3 kts | 120° |
| 2026-05-06 17:59 | 52.16911 | 20.97057 | 334 ft | 2 kts | 148° |
| 2026-05-06 17:59 | 52.16916 | 20.97051 | 333 ft | 0 kts | 152° |
| 2026-05-06 18:03 | 52.16908 | 20.97058 | 335 ft | 6 kts | 152° |
| 2026-05-06 18:03 | 52.16872 | 20.97089 | 337 ft | 8 kts | 152° |
| 2026-05-06 18:03 | 52.16776 | 20.97175 | 334 ft | 20 kts | 151° |
| 2026-05-06 18:03 | 52.16656 | 20.97278 | 336 ft | 19 kts | 152° |
| 2026-05-06 18:04 | 52.16563 | 20.97411 | 339 ft | 17 kts | 116° |
| 2026-05-06 18:04 | 52.16517 | 20.97577 | 335 ft | 15 kts | 115° |
| 2026-05-06 18:04 | 52.16469 | 20.97742 | 337 ft | 14 kts | 114° |
| 2026-05-06 18:04 | 52.16420 | 20.97809 | 339 ft | 9 kts | 181° |
| 2026-05-06 18:05 | 52.16344 | 20.97751 | 338 ft | 18 kts | 206° |
| 2026-05-06 18:05 | 52.16326 | 20.97597 | 338 ft | 17 kts | 295° |
| 2026-05-06 18:05 | 52.16388 | 20.97376 | 335 ft | 41 kts | 295° |
| 2026-05-06 18:05 | 52.16615 | 20.96572 | 338 ft | 111 kts | 294° |
| 2026-05-06 18:06 | 52.17017 | 20.95154 | 416 ft | 155 kts | 295° |
| 2026-05-06 18:06 | 52.17472 | 20.93575 | 1025 ft | 156 kts | 295° |
| 2026-05-06 18:06 | 52.17920 | 20.91971 | 1726 ft | 157 kts | 291° |
| 2026-05-06 18:06 | 52.18270 | 20.90198 | 2117 ft | 175 kts | 269° |
| 2026-05-06 18:07 | 52.18044 | 20.88133 | 2438 ft | 197 kts | 256° |
| 2026-05-06 18:07 | 52.17719 | 20.85852 | 2814 ft | 218 kts | 256° |
| 2026-05-06 18:07 | 52.17364 | 20.83307 | 3276 ft | 241 kts | 256° |
| 2026-05-06 18:07 | 52.16989 | 20.80591 | 4119 ft | 248 kts | 256° |
| 2026-05-06 18:08 | 52.16609 | 20.77821 | 5063 ft | 252 kts | 255° |
| 2026-05-06 18:08 | 52.16225 | 20.75013 | 6021 ft | 255 kts | 255° |
| 2026-05-06 18:08 | 52.15713 | 20.72253 | 6959 ft | 255 kts | 243° |
| 2026-05-06 18:08 | 52.14705 | 20.69857 | 7808 ft | 260 kts | 225° |
| 2026-05-06 18:09 | 52.13294 | 20.67973 | 8694 ft | 264 kts | 218° |
| 2026-05-06 18:09 | 52.11826 | 20.66132 | 9611 ft | 267 kts | 218° |
| 2026-05-06 18:09 | 52.10330 | 20.64247 | 10183 ft | 281 kts | 218° |
| 2026-05-06 18:09 | 52.08718 | 20.62210 | 10478 ft | 304 kts | 219° |
| 2026-05-06 18:10 | 52.07016 | 20.60056 | 11092 ft | 313 kts | 218° |
| 2026-05-06 18:10 | 52.05304 | 20.57893 | 11868 ft | 317 kts | 218° |
| 2026-05-06 18:10 | 52.03551 | 20.55682 | 12683 ft | 320 kts | 218° |
| 2026-05-06 18:10 | 52.01780 | 20.53453 | 13484 ft | 323 kts | 219° |
| 2026-05-06 18:11 | 51.99992 | 20.51206 | 14204 ft | 326 kts | 218° |
| 2026-05-06 18:11 | 51.98192 | 20.48945 | 14903 ft | 329 kts | 219° |
| 2026-05-06 18:11 | 51.96359 | 20.46709 | 15612 ft | 331 kts | 214° |
| 2026-05-06 18:11 | 51.94293 | 20.44998 | 16300 ft | 336 kts | 202° |
| 2026-05-06 18:12 | 51.91998 | 20.44059 | 16965 ft | 344 kts | 190° |
| 2026-05-06 18:12 | 51.89597 | 20.43690 | 17643 ft | 347 kts | 188° |
| 2026-05-06 18:12 | 51.87214 | 20.43340 | 18269 ft | 350 kts | 188° |
| 2026-05-06 18:12 | 51.84781 | 20.42971 | 18844 ft | 353 kts | 189° |
| 2026-05-06 18:13 | 51.82325 | 20.42592 | 19424 ft | 356 kts | 189° |
| 2026-05-06 18:13 | 51.79849 | 20.42208 | 20006 ft | 359 kts | 189° |
| 2026-05-06 18:13 | 51.77350 | 20.41825 | 20587 ft | 362 kts | 189° |
| 2026-05-06 18:13 | 51.74826 | 20.41440 | 21172 ft | 364 kts | 189° |
| 2026-05-06 18:14 | 51.72285 | 20.41053 | 21770 ft | 368 kts | 189° |
| 2026-05-06 18:14 | 51.69727 | 20.40670 | 22327 ft | 370 kts | 189° |
| 2026-05-06 18:14 | 51.67151 | 20.40275 | 22861 ft | 374 kts | 189° |
| 2026-05-06 18:14 | 51.64551 | 20.39874 | 23387 ft | 377 kts | 189° |
| 2026-05-06 18:15 | 51.61934 | 20.39469 | 23829 ft | 379 kts | 189° |
| 2026-05-06 18:15 | 51.59298 | 20.39063 | 24275 ft | 380 kts | 189° |
| 2026-05-06 18:15 | 51.56658 | 20.38664 | 24702 ft | 382 kts | 189° |
| 2026-05-06 18:15 | 51.53997 | 20.38268 | 25139 ft | 385 kts | 189° |
| 2026-05-06 18:16 | 51.51321 | 20.37875 | 25574 ft | 386 kts | 189° |
| 2026-05-06 18:16 | 51.48639 | 20.37479 | 25992 ft | 388 kts | 189° |
| 2026-05-06 18:16 | 51.45945 | 20.37080 | 26408 ft | 390 kts | 189° |
| 2026-05-06 18:16 | 51.43232 | 20.36675 | 26837 ft | 392 kts | 189° |
| 2026-05-06 18:17 | 51.40551 | 20.35947 | 27249 ft | 390 kts | 198° |
| 2026-05-06 18:17 | 51.38011 | 20.34461 | 27647 ft | 389 kts | 207° |
| 2026-05-06 18:17 | 51.35686 | 20.32267 | 28038 ft | 389 kts | 217° |
| 2026-05-06 18:17 | 51.33531 | 20.29650 | 28420 ft | 390 kts | 218° |
| 2026-05-06 18:18 | 51.31364 | 20.27014 | 28796 ft | 392 kts | 218° |
| 2026-05-06 18:18 | 51.29215 | 20.24412 | 29159 ft | 394 kts | 218° |
| 2026-05-06 18:18 | 51.27022 | 20.21775 | 29518 ft | 395 kts | 218° |
| 2026-05-06 18:18 | 51.24813 | 20.19138 | 29873 ft | 398 kts | 218° |
| 2026-05-06 18:19 | 51.22583 | 20.16479 | 30119 ft | 400 kts | 217° |
| 2026-05-06 18:19 | 51.20349 | 20.13803 | 30380 ft | 400 kts | 218° |
| 2026-05-06 18:19 | 51.18113 | 20.11118 | 30590 ft | 404 kts | 218° |
| 2026-05-06 18:19 | 51.15859 | 20.08414 | 30831 ft | 406 kts | 218° |
| 2026-05-06 18:20 | 51.13589 | 20.05706 | 31097 ft | 409 kts | 218° |
| 2026-05-06 18:20 | 51.11311 | 20.03001 | 31378 ft | 408 kts | 218° |
| 2026-05-06 18:20 | 51.09029 | 20.00291 | 31750 ft | 409 kts | 218° |
| 2026-05-06 18:20 | 51.06781 | 19.97621 | 32118 ft | 407 kts | 219° |
| 2026-05-06 18:21 | 51.04517 | 19.94934 | 32456 ft | 406 kts | 219° |
| 2026-05-06 18:21 | 51.02255 | 19.92255 | 32784 ft | 405 kts | 219° |
| 2026-05-06 18:21 | 50.99998 | 19.89585 | 33131 ft | 404 kts | 220° |
| 2026-05-06 18:21 | 50.97753 | 19.86926 | 33485 ft | 402 kts | 220° |
| 2026-05-06 18:22 | 50.95514 | 19.84271 | 33829 ft | 401 kts | 220° |
| 2026-05-06 18:22 | 50.93279 | 19.81627 | 34111 ft | 400 kts | 220° |
| 2026-05-06 18:22 | 50.91045 | 19.78990 | 34379 ft | 400 kts | 220° |
| 2026-05-06 18:22 | 50.88812 | 19.76363 | 34644 ft | 400 kts | 220° |
| 2026-05-06 18:23 | 50.86570 | 19.73731 | 34774 ft | 400 kts | 220° |
| 2026-05-06 18:23 | 50.84342 | 19.71117 | 34807 ft | 397 kts | 220° |
| 2026-05-06 18:23 | 50.79926 | 19.65942 | 34799 ft | 393 kts | 220° |
| 2026-05-06 18:24 | 50.75535 | 19.60798 | 34799 ft | 393 kts | 220° |
| 2026-05-06 18:24 | 50.71173 | 19.55702 | 34803 ft | 393 kts | 220° |
| 2026-05-06 18:25 | 50.66765 | 19.50574 | 34801 ft | 392 kts | 220° |
| 2026-05-06 18:25 | 50.62371 | 19.45470 | 34781 ft | 392 kts | 220° |
| 2026-05-06 18:26 | 50.57970 | 19.40379 | 34803 ft | 392 kts | 220° |
| 2026-05-06 18:26 | 50.53576 | 19.35309 | 34803 ft | 391 kts | 220° |
| 2026-05-06 18:27 | 50.49196 | 19.30252 | 34802 ft | 390 kts | 220° |
| 2026-05-06 18:27 | 50.44857 | 19.25239 | 34796 ft | 389 kts | 220° |
| 2026-05-06 18:28 | 50.40480 | 19.20221 | 34785 ft | 389 kts | 220° |
| 2026-05-06 18:28 | 50.36119 | 19.15229 | 34428 ft | 385 kts | 220° |
| 2026-05-06 18:29 | 50.33958 | 19.12761 | 33935 ft | 382 kts | 220° |
| 2026-05-06 18:29 | 50.31805 | 19.10308 | 33767 ft | 383 kts | 220° |
| 2026-05-06 18:29 | 50.27514 | 19.05426 | 33789 ft | 384 kts | 220° |
| 2026-05-06 18:30 | 50.23194 | 19.00509 | 33777 ft | 384 kts | 220° |
| 2026-05-06 18:30 | 50.18863 | 18.95586 | 33794 ft | 385 kts | 220° |
| 2026-05-06 18:31 | 50.14525 | 18.90666 | 33799 ft | 385 kts | 220° |
| 2026-05-06 18:31 | 50.10179 | 18.85767 | 33799 ft | 385 kts | 220° |
| 2026-05-06 18:32 | 50.05835 | 18.80880 | 33790 ft | 385 kts | 220° |
| 2026-05-06 18:32 | 50.01488 | 18.75989 | 33771 ft | 386 kts | 220° |
| 2026-05-06 18:33 | 49.97119 | 18.71093 | 33777 ft | 387 kts | 219° |
| 2026-05-06 18:33 | 49.92766 | 18.66234 | 33779 ft | 388 kts | 219° |
| 2026-05-06 18:34 | 49.88383 | 18.61334 | 33787 ft | 388 kts | 219° |
| 2026-05-06 18:34 | 49.84183 | 18.56124 | 33785 ft | 384 kts | 230° |
| 2026-05-06 18:35 | 49.80802 | 18.49749 | 33770 ft | 383 kts | 233° |
| 2026-05-06 18:35 | 49.77425 | 18.43353 | 33767 ft | 383 kts | 233° |
| 2026-05-06 18:36 | 49.74041 | 18.36958 | 33763 ft | 384 kts | 233° |
| 2026-05-06 18:36 | 49.70657 | 18.30559 | 33799 ft | 384 kts | 233° |
| 2026-05-06 18:37 | 49.67849 | 18.25255 | 33795 ft | 383 kts | 232° |
| 2026-05-06 18:37 | 49.63930 | 18.17882 | 33794 ft | 382 kts | 232° |
| 2026-05-06 18:38 | 49.60562 | 18.11565 | 33316 ft | 379 kts | 232° |
| 2026-05-06 18:38 | 49.58878 | 18.08411 | 32454 ft | 382 kts | 232° |
| 2026-05-06 18:38 | 49.57191 | 18.05262 | 31782 ft | 380 kts | 232° |
| 2026-05-06 18:39 | 49.55511 | 18.02130 | 31183 ft | 378 kts | 231° |
| 2026-05-06 18:39 | 49.54402 | 18.00062 | 30903 ft | 377 kts | 231° |
| 2026-05-06 18:39 | 49.52731 | 17.96946 | 30764 ft | 378 kts | 231° |
| 2026-05-06 18:40 | 49.49375 | 17.90699 | 30789 ft | 380 kts | 231° |
| 2026-05-06 18:40 | 49.47697 | 17.87579 | 30542 ft | 377 kts | 231° |
| 2026-05-06 18:40 | 49.46026 | 17.84478 | 29972 ft | 375 kts | 231° |
| 2026-05-06 18:40 | 49.43832 | 17.80410 | 29146 ft | 371 kts | 231° |
| 2026-05-06 18:41 | 49.42722 | 17.78358 | 28873 ft | 369 kts | 231° |
| 2026-05-06 18:41 | 49.39454 | 17.72318 | 28787 ft | 371 kts | 231° |
| 2026-05-06 18:42 | 49.36158 | 17.66232 | 28784 ft | 371 kts | 231° |
| 2026-05-06 18:42 | 49.32848 | 17.60152 | 28778 ft | 374 kts | 231° |
| 2026-05-06 18:43 | 49.29517 | 17.54048 | 28539 ft | 370 kts | 231° |
| 2026-05-06 18:43 | 49.27868 | 17.51018 | 28268 ft | 369 kts | 231° |
| 2026-05-06 18:43 | 49.26222 | 17.47996 | 27990 ft | 367 kts | 230° |
| 2026-05-06 18:43 | 49.24612 | 17.45044 | 27721 ft | 365 kts | 230° |
| 2026-05-06 18:44 | 49.22964 | 17.42033 | 27446 ft | 364 kts | 230° |
| 2026-05-06 18:44 | 49.21336 | 17.39074 | 27183 ft | 363 kts | 230° |
| 2026-05-06 18:44 | 49.19732 | 17.36162 | 26926 ft | 362 kts | 230° |
| 2026-05-06 18:44 | 49.18114 | 17.33225 | 26667 ft | 361 kts | 230° |
| 2026-05-06 18:45 | 49.16503 | 17.30295 | 26417 ft | 360 kts | 230° |
| 2026-05-06 18:45 | 49.14896 | 17.27372 | 26163 ft | 359 kts | 230° |
| 2026-05-06 18:45 | 49.13289 | 17.24457 | 25917 ft | 358 kts | 230° |
| 2026-05-06 18:45 | 49.11687 | 17.21553 | 25653 ft | 357 kts | 230° |
| 2026-05-06 18:46 | 49.10091 | 17.18664 | 25404 ft | 356 kts | 230° |
| 2026-05-06 18:46 | 49.08501 | 17.15787 | 25159 ft | 352 kts | 230° |
| 2026-05-06 18:46 | 49.06934 | 17.12957 | 24805 ft | 346 kts | 230° |
| 2026-05-06 18:46 | 49.05390 | 17.10175 | 24397 ft | 342 kts | 230° |
| 2026-05-06 18:47 | 49.03859 | 17.07418 | 23989 ft | 338 kts | 230° |
| 2026-05-06 18:47 | 49.02344 | 17.04696 | 23580 ft | 334 kts | 230° |
| 2026-05-06 18:47 | 49.00847 | 17.02009 | 23141 ft | 331 kts | 229° |
| 2026-05-06 18:47 | 48.99365 | 16.99351 | 22710 ft | 327 kts | 229° |
| 2026-05-06 18:48 | 48.97902 | 16.96729 | 22302 ft | 323 kts | 229° |
| 2026-05-06 18:48 | 48.96459 | 16.94143 | 21902 ft | 319 kts | 229° |
| 2026-05-06 18:48 | 48.95051 | 16.91618 | 21510 ft | 315 kts | 229° |
| 2026-05-06 18:48 | 48.93620 | 16.89052 | 21098 ft | 313 kts | 229° |
| 2026-05-06 18:49 | 48.92235 | 16.86573 | 20687 ft | 310 kts | 229° |
| 2026-05-06 18:49 | 48.90840 | 16.84079 | 20281 ft | 308 kts | 229° |
| 2026-05-06 18:49 | 48.89453 | 16.81601 | 19875 ft | 306 kts | 229° |
| 2026-05-06 18:49 | 48.88074 | 16.79140 | 19474 ft | 305 kts | 229° |
| 2026-05-06 18:50 | 48.86697 | 16.76691 | 19077 ft | 304 kts | 229° |
| 2026-05-06 18:50 | 48.85308 | 16.74223 | 18674 ft | 316 kts | 229° |
| 2026-05-06 18:50 | 48.83871 | 16.71677 | 18251 ft | 317 kts | 228° |
| 2026-05-06 18:50 | 48.82441 | 16.69144 | 17811 ft | 315 kts | 228° |
| 2026-05-06 18:51 | 48.80995 | 16.66657 | 17388 ft | 312 kts | 223° |
| 2026-05-06 18:51 | 48.79270 | 16.64714 | 16997 ft | 308 kts | 208° |
| 2026-05-06 18:51 | 48.77289 | 16.63601 | 16816 ft | 303 kts | 194° |
| 2026-05-06 18:51 | 48.75118 | 16.63334 | 16658 ft | 321 kts | 179° |
| 2026-05-06 18:52 | 48.72893 | 16.63914 | 16446 ft | 327 kts | 171° |
| 2026-05-06 18:52 | 48.70695 | 16.64644 | 16221 ft | 327 kts | 171° |
| 2026-05-06 18:52 | 48.68473 | 16.65382 | 16001 ft | 326 kts | 171° |
| 2026-05-06 18:52 | 48.66258 | 16.66117 | 15761 ft | 325 kts | 171° |
| 2026-05-06 18:53 | 48.64052 | 16.66847 | 15539 ft | 324 kts | 171° |
| 2026-05-06 18:53 | 48.61853 | 16.67569 | 15316 ft | 323 kts | 171° |
| 2026-05-06 18:53 | 48.59661 | 16.68284 | 15087 ft | 321 kts | 171° |
| 2026-05-06 18:53 | 48.57479 | 16.68996 | 14861 ft | 319 kts | 171° |
| 2026-05-06 18:54 | 48.55324 | 16.69733 | 14650 ft | 316 kts | 170° |
| 2026-05-06 18:54 | 48.53190 | 16.70510 | 14440 ft | 314 kts | 169° |
| 2026-05-06 18:54 | 48.51078 | 16.71296 | 14225 ft | 313 kts | 169° |
| 2026-05-06 18:54 | 48.48992 | 16.72075 | 14018 ft | 311 kts | 169° |
| 2026-05-06 18:55 | 48.46888 | 16.72859 | 13810 ft | 310 kts | 169° |
| 2026-05-06 18:55 | 48.44817 | 16.73627 | 13649 ft | 301 kts | 169° |
| 2026-05-06 18:55 | 48.42815 | 16.74367 | 13529 ft | 292 kts | 170° |
| 2026-05-06 18:55 | 48.40875 | 16.75082 | 13392 ft | 282 kts | 170° |
| 2026-05-06 18:56 | 48.39002 | 16.75770 | 13273 ft | 273 kts | 170° |
| 2026-05-06 18:56 | 48.37200 | 16.76453 | 13133 ft | 259 kts | 169° |
| 2026-05-06 18:56 | 48.35498 | 16.77110 | 12834 ft | 248 kts | 170° |
| 2026-05-06 18:56 | 48.33839 | 16.77751 | 12364 ft | 246 kts | 169° |
| 2026-05-06 18:57 | 48.32181 | 16.78397 | 12075 ft | 245 kts | 169° |
| 2026-05-06 18:57 | 48.30560 | 16.79026 | 11955 ft | 241 kts | 169° |
| 2026-05-06 18:57 | 48.28921 | 16.79666 | 11925 ft | 243 kts | 169° |
| 2026-05-06 18:57 | 48.27286 | 16.80310 | 11559 ft | 244 kts | 169° |
| 2026-05-06 18:58 | 48.25637 | 16.80961 | 11221 ft | 245 kts | 169° |
| 2026-05-06 18:58 | 48.23993 | 16.81613 | 10929 ft | 243 kts | 170° |
| 2026-05-06 18:58 | 48.22343 | 16.81876 | 10630 ft | 236 kts | 190° |
| 2026-05-06 18:58 | 48.20819 | 16.81105 | 10313 ft | 231 kts | 213° |
| 2026-05-06 18:59 | 48.19694 | 16.79466 | 10042 ft | 229 kts | 237° |
| 2026-05-06 18:59 | 48.19138 | 16.77203 | 9996 ft | 238 kts | 260° |
| 2026-05-06 18:59 | 48.19302 | 16.74710 | 9976 ft | 247 kts | 284° |
| 2026-05-06 18:59 | 48.20065 | 16.72380 | 9675 ft | 250 kts | 293° |
| 2026-05-06 19:00 | 48.20954 | 16.70131 | 9317 ft | 253 kts | 300° |
| 2026-05-06 19:00 | 48.22125 | 16.68138 | 8987 ft | 257 kts | 311° |
| 2026-05-06 19:00 | 48.23553 | 16.66489 | 8632 ft | 261 kts | 322° |
| 2026-05-06 19:00 | 48.25187 | 16.65267 | 8271 ft | 264 kts | 334° |
| 2026-05-06 19:01 | 48.26959 | 16.64470 | 7900 ft | 266 kts | 339° |
| 2026-05-06 19:01 | 48.28714 | 16.63739 | 7702 ft | 257 kts | 339° |
| 2026-05-06 19:01 | 48.30425 | 16.63021 | 7394 ft | 255 kts | 339° |
| 2026-05-06 19:01 | 48.32121 | 16.62304 | 7081 ft | 253 kts | 339° |
| 2026-05-06 19:02 | 48.33818 | 16.61588 | 6750 ft | 252 kts | 339° |
| 2026-05-06 19:02 | 48.35479 | 16.60887 | 6417 ft | 251 kts | 339° |
| 2026-05-06 19:02 | 48.37159 | 16.60182 | 6119 ft | 250 kts | 339° |
| 2026-05-06 19:02 | 48.38830 | 16.59479 | 5987 ft | 250 kts | 339° |
| 2026-05-06 19:03 | 48.40505 | 16.58769 | 5988 ft | 249 kts | 339° |
| 2026-05-06 19:03 | 48.42126 | 16.58085 | 5997 ft | 234 kts | 340° |
| 2026-05-06 19:03 | 48.43642 | 16.57448 | 5972 ft | 219 kts | 339° |
| 2026-05-06 19:03 | 48.45064 | 16.56847 | 5991 ft | 208 kts | 339° |
| 2026-05-06 19:04 | 48.46453 | 16.56261 | 5996 ft | 207 kts | 339° |
| 2026-05-06 19:04 | 48.47837 | 16.55679 | 5970 ft | 205 kts | 340° |
| 2026-05-06 19:04 | 48.49209 | 16.55088 | 5971 ft | 206 kts | 338° |
| 2026-05-06 19:04 | 48.50578 | 16.54489 | 5981 ft | 204 kts | 338° |
| 2026-05-06 19:05 | 48.51947 | 16.53883 | 5980 ft | 205 kts | 335° |
| 2026-05-06 19:05 | 48.53092 | 16.52788 | 5968 ft | 194 kts | 311° |
| 2026-05-06 19:05 | 48.54015 | 16.51335 | 5645 ft | 192 kts | 307° |
| 2026-05-06 19:05 | 48.54669 | 16.49646 | 5299 ft | 183 kts | 276° |
| 2026-05-06 19:06 | 48.54456 | 16.47845 | 5004 ft | 175 kts | 234° |
| 2026-05-06 19:06 | 48.53488 | 16.46784 | 4972 ft | 177 kts | 202° |
| 2026-05-06 19:06 | 48.52293 | 16.46274 | 4966 ft | 180 kts | 197° |
| 2026-05-06 19:06 | 48.51068 | 16.45851 | 4963 ft | 182 kts | 195° |
| 2026-05-06 19:07 | 48.49829 | 16.45421 | 4967 ft | 182 kts | 196° |
| 2026-05-06 19:07 | 48.48598 | 16.45004 | 4965 ft | 181 kts | 195° |
| 2026-05-06 19:07 | 48.47355 | 16.44782 | 4977 ft | 183 kts | 181° |
| 2026-05-06 19:07 | 48.46090 | 16.45013 | 4977 ft | 184 kts | 176° |
| 2026-05-06 19:08 | 48.44824 | 16.45323 | 4973 ft | 183 kts | 174° |
| 2026-05-06 19:08 | 48.43578 | 16.45617 | 4981 ft | 183 kts | 175° |
| 2026-05-06 19:08 | 48.42317 | 16.45911 | 4980 ft | 184 kts | 175° |
| 2026-05-06 19:08 | 48.41057 | 16.46209 | 4982 ft | 183 kts | 175° |
| 2026-05-06 19:09 | 48.39798 | 16.46412 | 4981 ft | 181 kts | 182° |
| 2026-05-06 19:09 | 48.38531 | 16.46662 | 4982 ft | 185 kts | 174° |
| 2026-05-06 19:09 | 48.37271 | 16.47095 | 4982 ft | 186 kts | 171° |
| 2026-05-06 19:09 | 48.36015 | 16.47601 | 4985 ft | 187 kts | 169° |
| 2026-05-06 19:10 | 48.34756 | 16.48130 | 4987 ft | 188 kts | 169° |
| 2026-05-06 19:10 | 48.33496 | 16.48667 | 4866 ft | 188 kts | 169° |
| 2026-05-06 19:10 | 48.32243 | 16.49200 | 4656 ft | 187 kts | 170° |
| 2026-05-06 19:10 | 48.30999 | 16.49731 | 4426 ft | 185 kts | 169° |
| 2026-05-06 19:11 | 48.29774 | 16.50254 | 4182 ft | 184 kts | 169° |
| 2026-05-06 19:11 | 48.28550 | 16.50777 | 3941 ft | 181 kts | 169° |
| 2026-05-06 19:11 | 48.27357 | 16.51287 | 3695 ft | 174 kts | 171° |
| 2026-05-06 19:11 | 48.26217 | 16.51772 | 3459 ft | 168 kts | 171° |
| 2026-05-06 19:12 | 48.25103 | 16.52245 | 3244 ft | 165 kts | 171° |
| 2026-05-06 19:12 | 48.24005 | 16.52711 | 3033 ft | 164 kts | 171° |
| 2026-05-06 19:12 | 48.22916 | 16.53175 | 2816 ft | 161 kts | 171° |
| 2026-05-06 19:12 | 48.21844 | 16.53631 | 2608 ft | 160 kts | 169° |
| 2026-05-06 19:13 | 48.20778 | 16.54085 | 2398 ft | 158 kts | 169° |
| 2026-05-06 19:13 | 48.19723 | 16.54532 | 2191 ft | 156 kts | 169° |
| 2026-05-06 19:13 | 48.18673 | 16.54978 | 1979 ft | 158 kts | 169° |
| 2026-05-06 19:13 | 48.17659 | 16.55411 | 1772 ft | 146 kts | 169° |
| 2026-05-06 19:14 | 48.16701 | 16.55815 | 1606 ft | 141 kts | 168° |
| 2026-05-06 19:14 | 48.15764 | 16.56201 | 1392 ft | 135 kts | 170° |
| 2026-05-06 19:14 | 48.14884 | 16.56572 | 1268 ft | 129 kts | 167° |
| 2026-05-06 19:14 | 48.14030 | 16.56940 | 1082 ft | 125 kts | 165° |
| 2026-05-06 19:15 | 48.13181 | 16.57299 | 914 ft | 133 kts | 163° |
| 2026-05-06 19:15 | 48.12309 | 16.57676 | 721 ft | 128 kts | 165° |
| 2026-05-06 19:15 | 48.11476 | 16.58034 | 618 ft | 114 kts | 166° |
| 2026-05-06 19:15 | 48.10838 | 16.58297 | 622 ft | 78 kts | 164° |
| 2026-05-06 19:16 | 48.10374 | 16.58495 | 619 ft | 65 kts | 164° |
| 2026-05-06 19:16 | 48.09988 | 16.58619 | 620 ft | 47 kts | 181° |
| 2026-05-06 19:16 | 48.09704 | 16.58562 | 616 ft | 27 kts | 191° |
| 2026-05-06 19:16 | 48.09641 | 16.58422 | 610 ft | 15 kts | 299° |
| 2026-05-06 19:17 | 48.09725 | 16.58361 | 610 ft | 13 kts | 346° |
| 2026-05-06 19:17 | 48.09804 | 16.58321 | 616 ft | 11 kts | 342° |
| 2026-05-06 19:17 | 48.09884 | 16.58287 | 616 ft | 14 kts | 344° |
| 2026-05-06 19:17 | 48.10001 | 16.58238 | 615 ft | 20 kts | 345° |
| 2026-05-06 19:18 | 48.10135 | 16.58179 | 621 ft | 20 kts | 345° |
| 2026-05-06 19:18 | 48.10262 | 16.58125 | 614 ft | 18 kts | 344° |
| 2026-05-06 19:18 | 48.10303 | 16.58108 | 610 ft | 0 kts | 344° |
| 2026-05-06 19:20 | 48.10309 | 16.58105 | 620 ft | 5 kts | 344° |
| 2026-05-06 19:20 | 48.10325 | 16.58099 | 613 ft | 0 kts | 344° |
| 2026-05-06 19:20 | 48.10326 | 16.58098 | 613 ft | 1 kts | 344° |
| 2026-05-06 19:20 | 48.10398 | 16.58068 | 619 ft | 25 kts | 344° |
| 2026-05-06 19:21 | 48.10574 | 16.57993 | 623 ft | 26 kts | 344° |
| 2026-05-06 19:21 | 48.10741 | 16.57916 | 614 ft | 23 kts | 339° |
| 2026-05-06 19:21 | 48.10867 | 16.57870 | 615 ft | 22 kts | 343° |
| 2026-05-06 19:21 | 48.11046 | 16.57793 | 613 ft | 28 kts | 344° |
| 2026-05-06 19:22 | 48.11229 | 16.57716 | 621 ft | 26 kts | 343° |
| 2026-05-06 19:22 | 48.11401 | 16.57644 | 622 ft | 25 kts | 344° |
| 2026-05-06 19:22 | 48.11563 | 16.57575 | 610 ft | 23 kts | 344° |
| 2026-05-06 19:22 | 48.11715 | 16.57511 | 616 ft | 22 kts | 344° |
| 2026-05-06 19:23 | 48.11810 | 16.57428 | 614 ft | 13 kts | 276° |
| 2026-05-06 19:23 | 48.11825 | 16.57306 | 619 ft | 12 kts | 296° |
| 2026-05-06 19:23 | 48.11866 | 16.57200 | 612 ft | 12 kts | 315° |
| 2026-05-06 19:23 | 48.11912 | 16.57110 | 617 ft | 11 kts | 294° |
| 2026-05-06 19:24 | 48.11944 | 16.57009 | 617 ft | 12 kts | 296° |
| 2026-05-06 19:24 | 48.11980 | 16.56910 | 617 ft | 7 kts | 319° |
| 2026-05-06 19:24 | 48.12017 | 16.56924 | 610 ft | 5 kts | 25° |
| 2026-05-06 19:24 | 48.12029 | 16.56933 | 617 ft | 0 kts | 25° |